sensor_id;sensor_type;location;lat;lon;timestamp;P1;durP1;ratioP1;P2;durP2;ratioP2
18740;SDS011;9499;52.472;13.448;2023-06-22T00:01:12;3.93;;;3.17;;
18740;SDS011;9499;52.472;13.448;2023-06-22T00:03:38;4.53;;;3.00;;
18740;SDS011;9499;52.472;13.448;2023-06-22T00:06:05;3.47;;;2.57;;
18740;SDS011;9499;52.472;13.448;2023-06-22T00:08:31;5.03;;;3.33;;
18740;SDS011;9499;52.472;13.448;2023-06-22T00:10:58;5.63;;;3.50;;
18740;SDS011;9499;52.472;13.448;2023-06-22T00:13:26;4.13;;;3.07;;
18740;SDS011;9499;52.472;13.448;2023-06-22T00:15:52;3.30;;;2.70;;
18740;SDS011;9499;52.472;13.448;2023-06-22T00:18:19;3.40;;;3.10;;
18740;SDS011;9499;52.472;13.448;2023-06-22T00:20:45;4.33;;;3.17;;
18740;SDS011;9499;52.472;13.448;2023-06-22T00:23:12;4.63;;;3.03;;
18740;SDS011;9499;52.472;13.448;2023-06-22T00:25:42;3.30;;;2.63;;
18740;SDS011;9499;52.472;13.448;2023-06-22T00:28:09;4.60;;;2.80;;
18740;SDS011;9499;52.472;13.448;2023-06-22T00:30:36;5.10;;;3.53;;
18740;SDS011;9499;52.472;13.448;2023-06-22T00:33:03;3.60;;;2.00;;
18740;SDS011;9499;52.472;13.448;2023-06-22T00:35:32;8.10;;;3.07;;
18740;SDS011;9499;52.472;13.448;2023-06-22T00:37:59;3.30;;;2.63;;
18740;SDS011;9499;52.472;13.448;2023-06-22T00:40:28;4.43;;;3.20;;
18740;SDS011;9499;52.472;13.448;2023-06-22T00:42:55;4.10;;;2.40;;
18740;SDS011;9499;52.472;13.448;2023-06-22T00:45:22;4.87;;;3.53;;
18740;SDS011;9499;52.472;13.448;2023-06-22T00:47:51;3.67;;;2.27;;
18740;SDS011;9499;52.472;13.448;2023-06-22T00:50:19;3.27;;;2.37;;
18740;SDS011;9499;52.472;13.448;2023-06-22T00:52:48;5.60;;;3.40;;
18740;SDS011;9499;52.472;13.448;2023-06-22T00:55:17;5.47;;;3.00;;
18740;SDS011;9499;52.472;13.448;2023-06-22T00:57:44;3.80;;;2.63;;
18740;SDS011;9499;52.472;13.448;2023-06-22T01:00:12;3.17;;;2.80;;
18740;SDS011;9499;52.472;13.448;2023-06-22T01:02:43;3.80;;;2.53;;
18740;SDS011;9499;52.472;13.448;2023-06-22T01:05:13;4.27;;;2.70;;
18740;SDS011;9499;52.472;13.448;2023-06-22T01:07:41;7.07;;;3.00;;
18740;SDS011;9499;52.472;13.448;2023-06-22T01:10:18;4.80;;;4.00;;
18740;SDS011;9499;52.472;13.448;2023-06-22T01:12:51;4.07;;;2.30;;
18740;SDS011;9499;52.472;13.448;2023-06-22T01:15:21;3.80;;;3.20;;
18740;SDS011;9499;52.472;13.448;2023-06-22T01:17:51;4.50;;;3.00;;
18740;SDS011;9499;52.472;13.448;2023-06-22T01:20:20;4.33;;;3.90;;
18740;SDS011;9499;52.472;13.448;2023-06-22T01:22:50;3.80;;;2.30;;
18740;SDS011;9499;52.472;13.448;2023-06-22T01:25:28;4.27;;;2.80;;
18740;SDS011;9499;52.472;13.448;2023-06-22T01:28:03;4.70;;;3.10;;
18740;SDS011;9499;52.472;13.448;2023-06-22T01:30:41;4.73;;;3.77;;
18740;SDS011;9499;52.472;13.448;2023-06-22T01:33:08;4.40;;;3.43;;
18740;SDS011;9499;52.472;13.448;2023-06-22T01:35:36;4.40;;;3.30;;
18740;SDS011;9499;52.472;13.448;2023-06-22T01:38:03;3.73;;;2.53;;
18740;SDS011;9499;52.472;13.448;2023-06-22T01:40:31;5.13;;;4.13;;
18740;SDS011;9499;52.472;13.448;2023-06-22T01:42:59;5.83;;;3.77;;
18740;SDS011;9499;52.472;13.448;2023-06-22T01:45:27;5.93;;;2.83;;
18740;SDS011;9499;52.472;13.448;2023-06-22T01:47:56;4.63;;;3.00;;
18740;SDS011;9499;52.472;13.448;2023-06-22T01:50:23;5.77;;;3.70;;
18740;SDS011;9499;52.472;13.448;2023-06-22T01:52:52;7.00;;;3.33;;
18740;SDS011;9499;52.472;13.448;2023-06-22T01:55:19;4.60;;;2.90;;
18740;SDS011;9499;52.472;13.448;2023-06-22T01:57:45;7.80;;;4.60;;
18740;SDS011;9499;52.472;13.448;2023-06-22T02:00:13;4.60;;;3.50;;
18740;SDS011;9499;52.472;13.448;2023-06-22T02:02:49;4.27;;;3.80;;
18740;SDS011;9499;52.472;13.448;2023-06-22T02:05:21;5.57;;;3.50;;
18740;SDS011;9499;52.472;13.448;2023-06-22T02:07:52;3.60;;;3.00;;
18740;SDS011;9499;52.472;13.448;2023-06-22T02:10:24;4.20;;;2.10;;
18740;SDS011;9499;52.472;13.448;2023-06-22T02:12:53;4.40;;;4.00;;
18740;SDS011;9499;52.472;13.448;2023-06-22T02:15:20;4.20;;;3.23;;
18740;SDS011;9499;52.472;13.448;2023-06-22T02:17:47;3.80;;;3.20;;
18740;SDS011;9499;52.472;13.448;2023-06-22T02:20:14;5.83;;;3.10;;
18740;SDS011;9499;52.472;13.448;2023-06-22T02:22:42;3.97;;;3.20;;
18740;SDS011;9499;52.472;13.448;2023-06-22T02:25:09;4.23;;;3.67;;
18740;SDS011;9499;52.472;13.448;2023-06-22T02:27:35;4.40;;;3.60;;
18740;SDS011;9499;52.472;13.448;2023-06-22T02:30:05;5.10;;;3.83;;
18740;SDS011;9499;52.472;13.448;2023-06-22T02:32:33;4.60;;;3.53;;
18740;SDS011;9499;52.472;13.448;2023-06-22T02:35:00;5.80;;;3.90;;
18740;SDS011;9499;52.472;13.448;2023-06-22T02:37:29;5.80;;;3.70;;
18740;SDS011;9499;52.472;13.448;2023-06-22T02:39:56;6.30;;;4.60;;
18740;SDS011;9499;52.472;13.448;2023-06-22T02:42:23;4.50;;;4.10;;
18740;SDS011;9499;52.472;13.448;2023-06-22T02:44:50;4.73;;;3.20;;
18740;SDS011;9499;52.472;13.448;2023-06-22T02:47:16;5.60;;;4.30;;
18740;SDS011;9499;52.472;13.448;2023-06-22T02:49:43;4.10;;;3.30;;
18740;SDS011;9499;52.472;13.448;2023-06-22T02:52:11;3.77;;;3.47;;
18740;SDS011;9499;52.472;13.448;2023-06-22T02:54:38;4.93;;;3.60;;
18740;SDS011;9499;52.472;13.448;2023-06-22T02:57:06;7.33;;;3.57;;
18740;SDS011;9499;52.472;13.448;2023-06-22T02:59:38;4.53;;;3.30;;
18740;SDS011;9499;52.472;13.448;2023-06-22T03:02:05;2.83;;;2.30;;
18740;SDS011;9499;52.472;13.448;2023-06-22T03:04:32;5.53;;;3.53;;
18740;SDS011;9499;52.472;13.448;2023-06-22T03:06:58;4.10;;;3.20;;
18740;SDS011;9499;52.472;13.448;2023-06-22T03:09:26;3.23;;;2.70;;
18740;SDS011;9499;52.472;13.448;2023-06-22T03:11:53;6.10;;;3.50;;
18740;SDS011;9499;52.472;13.448;2023-06-22T03:14:21;5.63;;;3.90;;
18740;SDS011;9499;52.472;13.448;2023-06-22T03:16:48;4.63;;;4.00;;
18740;SDS011;9499;52.472;13.448;2023-06-22T03:19:14;4.47;;;3.87;;
18740;SDS011;9499;52.472;13.448;2023-06-22T03:21:41;5.30;;;3.30;;
18740;SDS011;9499;52.472;13.448;2023-06-22T03:24:08;8.27;;;4.67;;
18740;SDS011;9499;52.472;13.448;2023-06-22T03:26:34;4.50;;;3.50;;
18740;SDS011;9499;52.472;13.448;2023-06-22T03:29:01;4.37;;;3.23;;
18740;SDS011;9499;52.472;13.448;2023-06-22T03:31:29;3.90;;;2.83;;
18740;SDS011;9499;52.472;13.448;2023-06-22T03:33:55;4.37;;;2.93;;
18740;SDS011;9499;52.472;13.448;2023-06-22T03:36:22;5.90;;;3.07;;
18740;SDS011;9499;52.472;13.448;2023-06-22T03:38:49;3.87;;;3.10;;
18740;SDS011;9499;52.472;13.448;2023-06-22T03:41:16;3.27;;;2.60;;
18740;SDS011;9499;52.472;13.448;2023-06-22T03:43:42;4.23;;;3.13;;
18740;SDS011;9499;52.472;13.448;2023-06-22T03:46:09;6.70;;;2.90;;
18740;SDS011;9499;52.472;13.448;2023-06-22T03:48:37;5.03;;;3.87;;
18740;SDS011;9499;52.472;13.448;2023-06-22T03:51:04;3.40;;;2.50;;
18740;SDS011;9499;52.472;13.448;2023-06-22T03:53:31;4.03;;;3.23;;
18740;SDS011;9499;52.472;13.448;2023-06-22T03:55:57;3.83;;;2.63;;
18740;SDS011;9499;52.472;13.448;2023-06-22T03:58:24;6.90;;;3.00;;
18740;SDS011;9499;52.472;13.448;2023-06-22T04:00:51;3.67;;;2.80;;
18740;SDS011;9499;52.472;13.448;2023-06-22T04:03:18;3.77;;;2.53;;
18740;SDS011;9499;52.472;13.448;2023-06-22T04:05:47;4.07;;;2.80;;
18740;SDS011;9499;52.472;13.448;2023-06-22T04:08:14;5.27;;;3.30;;
18740;SDS011;9499;52.472;13.448;2023-06-22T04:10:41;3.27;;;2.40;;
18740;SDS011;9499;52.472;13.448;2023-06-22T04:13:08;6.10;;;4.03;;
18740;SDS011;9499;52.472;13.448;2023-06-22T04:15:35;4.07;;;2.90;;
18740;SDS011;9499;52.472;13.448;2023-06-22T04:18:01;5.27;;;4.70;;
18740;SDS011;9499;52.472;13.448;2023-06-22T04:20:28;3.20;;;2.90;;
18740;SDS011;9499;52.472;13.448;2023-06-22T04:22:57;8.03;;;4.10;;
18740;SDS011;9499;52.472;13.448;2023-06-22T04:25:24;4.07;;;2.93;;
18740;SDS011;9499;52.472;13.448;2023-06-22T04:27:50;4.47;;;2.63;;
18740;SDS011;9499;52.472;13.448;2023-06-22T04:30:17;4.47;;;3.43;;
18740;SDS011;9499;52.472;13.448;2023-06-22T04:32:44;4.30;;;3.23;;
18740;SDS011;9499;52.472;13.448;2023-06-22T04:35:22;3.80;;;2.83;;
18740;SDS011;9499;52.472;13.448;2023-06-22T04:37:49;4.67;;;3.07;;
18740;SDS011;9499;52.472;13.448;2023-06-22T04:40:20;3.30;;;2.80;;
18740;SDS011;9499;52.472;13.448;2023-06-22T04:42:47;4.63;;;3.20;;
18740;SDS011;9499;52.472;13.448;2023-06-22T04:45:17;3.30;;;2.90;;
18740;SDS011;9499;52.472;13.448;2023-06-22T04:47:44;4.10;;;3.07;;
18740;SDS011;9499;52.472;13.448;2023-06-22T04:50:11;6.00;;;4.00;;
18740;SDS011;9499;52.472;13.448;2023-06-22T04:52:38;3.00;;;1.93;;
18740;SDS011;9499;52.472;13.448;2023-06-22T04:55:05;4.70;;;3.30;;
18740;SDS011;9499;52.472;13.448;2023-06-22T04:57:34;2.93;;;2.60;;
18740;SDS011;9499;52.472;13.448;2023-06-22T05:00:04;4.07;;;3.17;;
18740;SDS011;9499;52.472;13.448;2023-06-22T05:02:37;4.57;;;3.30;;
18740;SDS011;9499;52.472;13.448;2023-06-22T05:05:04;3.10;;;2.77;;
18740;SDS011;9499;52.472;13.448;2023-06-22T05:07:31;3.87;;;2.60;;
18740;SDS011;9499;52.472;13.448;2023-06-22T05:09:58;4.03;;;3.30;;
18740;SDS011;9499;52.472;13.448;2023-06-22T05:12:25;8.17;;;3.20;;
18740;SDS011;9499;52.472;13.448;2023-06-22T05:14:54;3.67;;;3.03;;
18740;SDS011;9499;52.472;13.448;2023-06-22T05:17:21;4.00;;;2.67;;
18740;SDS011;9499;52.472;13.448;2023-06-22T05:19:48;6.18;;;2.90;;
18740;SDS011;9499;52.472;13.448;2023-06-22T05:22:14;3.43;;;2.40;;
18740;SDS011;9499;52.472;13.448;2023-06-22T05:24:41;3.00;;;2.20;;
18740;SDS011;9499;52.472;13.448;2023-06-22T05:27:07;2.60;;;1.83;;
18740;SDS011;9499;52.472;13.448;2023-06-22T05:29:34;4.93;;;4.10;;
18740;SDS011;9499;52.472;13.448;2023-06-22T05:32:02;4.20;;;2.50;;
18740;SDS011;9499;52.472;13.448;2023-06-22T05:34:29;2.37;;;2.07;;
18740;SDS011;9499;52.472;13.448;2023-06-22T05:36:55;4.13;;;2.77;;
18740;SDS011;9499;52.472;13.448;2023-06-22T05:39:23;3.40;;;3.03;;
18740;SDS011;9499;52.472;13.448;2023-06-22T05:41:50;3.27;;;2.33;;
18740;SDS011;9499;52.472;13.448;2023-06-22T05:44:17;4.20;;;2.30;;
18740;SDS011;9499;52.472;13.448;2023-06-22T05:46:44;3.60;;;2.20;;
18740;SDS011;9499;52.472;13.448;2023-06-22T05:49:13;3.17;;;2.47;;
18740;SDS011;9499;52.472;13.448;2023-06-22T05:51:40;4.50;;;3.07;;
18740;SDS011;9499;52.472;13.448;2023-06-22T05:54:06;3.40;;;2.60;;
18740;SDS011;9499;52.472;13.448;2023-06-22T05:56:33;4.10;;;3.03;;
18740;SDS011;9499;52.472;13.448;2023-06-22T05:59:00;3.83;;;2.20;;
18740;SDS011;9499;52.472;13.448;2023-06-22T06:01:26;3.80;;;2.80;;
18740;SDS011;9499;52.472;13.448;2023-06-22T06:03:53;3.33;;;3.03;;
18740;SDS011;9499;52.472;13.448;2023-06-22T06:06:21;2.50;;;1.70;;
18740;SDS011;9499;52.472;13.448;2023-06-22T06:08:53;3.50;;;2.60;;
18740;SDS011;9499;52.472;13.448;2023-06-22T06:11:20;3.13;;;2.23;;
18740;SDS011;9499;52.472;13.448;2023-06-22T06:13:47;2.67;;;2.40;;
18740;SDS011;9499;52.472;13.448;2023-06-22T06:16:14;2.30;;;1.80;;
18740;SDS011;9499;52.472;13.448;2023-06-22T06:18:40;2.87;;;2.07;;
18740;SDS011;9499;52.472;13.448;2023-06-22T06:21:07;2.63;;;1.83;;
18740;SDS011;9499;52.472;13.448;2023-06-22T06:23:34;2.40;;;1.80;;
18740;SDS011;9499;52.472;13.448;2023-06-22T06:26:01;3.43;;;2.30;;
18740;SDS011;9499;52.472;13.448;2023-06-22T06:28:31;2.67;;;1.80;;
18740;SDS011;9499;52.472;13.448;2023-06-22T06:30:58;2.40;;;1.47;;
18740;SDS011;9499;52.472;13.448;2023-06-22T06:33:24;2.30;;;1.57;;
18740;SDS011;9499;52.472;13.448;2023-06-22T06:35:51;2.73;;;1.73;;
18740;SDS011;9499;52.472;13.448;2023-06-22T06:38:17;2.80;;;1.80;;
18740;SDS011;9499;52.472;13.448;2023-06-22T06:40:45;1.70;;;1.13;;
18740;SDS011;9499;52.472;13.448;2023-06-22T06:43:13;2.90;;;2.00;;
18740;SDS011;9499;52.472;13.448;2023-06-22T06:45:40;2.10;;;1.40;;
18740;SDS011;9499;52.472;13.448;2023-06-22T06:48:07;3.27;;;1.80;;
18740;SDS011;9499;52.472;13.448;2023-06-22T06:50:34;2.23;;;1.23;;
18740;SDS011;9499;52.472;13.448;2023-06-22T06:53:00;2.77;;;1.73;;
18740;SDS011;9499;52.472;13.448;2023-06-22T06:55:27;7.17;;;2.00;;
18740;SDS011;9499;52.472;13.448;2023-06-22T06:57:59;3.50;;;2.00;;
18740;SDS011;9499;52.472;13.448;2023-06-22T07:00:25;1.93;;;1.43;;
18740;SDS011;9499;52.472;13.448;2023-06-22T07:02:52;2.13;;;1.10;;
18740;SDS011;9499;52.472;13.448;2023-06-22T07:05:19;3.57;;;1.80;;
18740;SDS011;9499;52.472;13.448;2023-06-22T07:07:45;2.90;;;1.63;;
18740;SDS011;9499;52.472;13.448;2023-06-22T07:10:12;2.50;;;1.27;;
18740;SDS011;9499;52.472;13.448;2023-06-22T07:12:40;3.07;;;1.37;;
18740;SDS011;9499;52.472;13.448;2023-06-22T07:15:08;2.80;;;1.37;;
18740;SDS011;9499;52.472;13.448;2023-06-22T07:17:37;1.50;;;0.87;;
18740;SDS011;9499;52.472;13.448;2023-06-22T07:20:06;2.13;;;1.20;;
18740;SDS011;9499;52.472;13.448;2023-06-22T07:22:35;3.60;;;1.70;;
18740;SDS011;9499;52.472;13.448;2023-06-22T07:25:02;2.87;;;2.00;;
18740;SDS011;9499;52.472;13.448;2023-06-22T07:27:33;2.93;;;1.47;;
18740;SDS011;9499;52.472;13.448;2023-06-22T07:30:02;2.07;;;1.27;;
18740;SDS011;9499;52.472;13.448;2023-06-22T07:32:31;2.10;;;1.10;;
18740;SDS011;9499;52.472;13.448;2023-06-22T07:34:57;1.50;;;0.80;;
18740;SDS011;9499;52.472;13.448;2023-06-22T07:37:24;1.73;;;0.93;;
18740;SDS011;9499;52.472;13.448;2023-06-22T07:39:52;2.93;;;1.17;;
18740;SDS011;9499;52.472;13.448;2023-06-22T07:42:23;1.80;;;0.97;;
18740;SDS011;9499;52.472;13.448;2023-06-22T07:44:49;1.97;;;0.73;;
18740;SDS011;9499;52.472;13.448;2023-06-22T07:47:16;1.67;;;0.87;;
18740;SDS011;9499;52.472;13.448;2023-06-22T07:49:45;1.80;;;1.20;;
18740;SDS011;9499;52.472;13.448;2023-06-22T07:52:12;1.87;;;0.97;;
18740;SDS011;9499;52.472;13.448;2023-06-22T07:54:38;2.57;;;1.63;;
18740;SDS011;9499;52.472;13.448;2023-06-22T07:57:05;3.07;;;1.17;;
18740;SDS011;9499;52.472;13.448;2023-06-22T07:59:32;1.87;;;1.00;;
18740;SDS011;9499;52.472;13.448;2023-06-22T08:01:58;2.77;;;1.30;;
18740;SDS011;9499;52.472;13.448;2023-06-22T08:04:25;2.03;;;1.10;;
18740;SDS011;9499;52.472;13.448;2023-06-22T08:06:53;1.73;;;0.90;;
18740;SDS011;9499;52.472;13.448;2023-06-22T08:09:20;2.10;;;1.20;;
18740;SDS011;9499;52.472;13.448;2023-06-22T08:11:47;1.70;;;0.93;;
18740;SDS011;9499;52.472;13.448;2023-06-22T08:14:14;3.20;;;1.07;;
18740;SDS011;9499;52.472;13.448;2023-06-22T08:16:40;3.40;;;0.90;;
18740;SDS011;9499;52.472;13.448;2023-06-22T08:19:07;2.20;;;1.10;;
18740;SDS011;9499;52.472;13.448;2023-06-22T08:21:34;2.00;;;1.00;;
18740;SDS011;9499;52.472;13.448;2023-06-22T08:24:02;1.70;;;0.93;;
18740;SDS011;9499;52.472;13.448;2023-06-22T08:26:28;2.03;;;1.07;;
18740;SDS011;9499;52.472;13.448;2023-06-22T08:28:55;1.60;;;1.30;;
18740;SDS011;9499;52.472;13.448;2023-06-22T08:31:22;2.43;;;1.10;;
18740;SDS011;9499;52.472;13.448;2023-06-22T08:33:48;5.70;;;1.20;;
18740;SDS011;9499;52.472;13.448;2023-06-22T08:36:15;1.93;;;1.27;;
18740;SDS011;9499;52.472;13.448;2023-06-22T08:38:41;2.03;;;1.07;;
18740;SDS011;9499;52.472;13.448;2023-06-22T08:41:09;4.50;;;1.70;;
18740;SDS011;9499;52.472;13.448;2023-06-22T08:43:35;1.80;;;1.13;;
18740;SDS011;9499;52.472;13.448;2023-06-22T08:46:02;2.23;;;1.17;;
18740;SDS011;9499;52.472;13.448;2023-06-22T08:48:29;2.30;;;1.23;;
18740;SDS011;9499;52.472;13.448;2023-06-22T08:50:55;1.80;;;0.93;;
18740;SDS011;9499;52.472;13.448;2023-06-22T08:53:22;1.90;;;1.23;;
18740;SDS011;9499;52.472;13.448;2023-06-22T08:55:49;1.70;;;0.97;;
18740;SDS011;9499;52.472;13.448;2023-06-22T08:58:17;2.60;;;1.40;;
18740;SDS011;9499;52.472;13.448;2023-06-22T09:00:45;1.80;;;1.10;;
18740;SDS011;9499;52.472;13.448;2023-06-22T09:03:11;4.23;;;1.00;;
18740;SDS011;9499;52.472;13.448;2023-06-22T09:05:38;2.03;;;1.13;;
18740;SDS011;9499;52.472;13.448;2023-06-22T09:08:05;2.40;;;1.10;;
18740;SDS011;9499;52.472;13.448;2023-06-22T09:10:31;2.07;;;0.80;;
18740;SDS011;9499;52.472;13.448;2023-06-22T09:12:58;1.80;;;1.00;;
18740;SDS011;9499;52.472;13.448;2023-06-22T09:15:25;1.70;;;1.00;;
18740;SDS011;9499;52.472;13.448;2023-06-22T09:17:52;1.40;;;0.60;;
18740;SDS011;9499;52.472;13.448;2023-06-22T09:20:19;1.70;;;0.83;;
18740;SDS011;9499;52.472;13.448;2023-06-22T09:22:46;2.27;;;1.60;;
18740;SDS011;9499;52.472;13.448;2023-06-22T09:25:12;2.30;;;1.30;;
18740;SDS011;9499;52.472;13.448;2023-06-22T09:27:39;2.13;;;1.13;;
18740;SDS011;9499;52.472;13.448;2023-06-22T09:30:06;1.57;;;0.90;;
18740;SDS011;9499;52.472;13.448;2023-06-22T09:32:35;1.63;;;0.70;;
18740;SDS011;9499;52.472;13.448;2023-06-22T09:35:03;1.50;;;0.80;;
18740;SDS011;9499;52.472;13.448;2023-06-22T09:37:31;1.50;;;0.60;;
18740;SDS011;9499;52.472;13.448;2023-06-22T09:39:58;1.77;;;0.67;;
18740;SDS011;9499;52.472;13.448;2023-06-22T09:42:24;1.80;;;1.00;;
18740;SDS011;9499;52.472;13.448;2023-06-22T09:44:51;2.37;;;1.20;;
18740;SDS011;9499;52.472;13.448;2023-06-22T09:47:18;2.30;;;1.00;;
18740;SDS011;9499;52.472;13.448;2023-06-22T09:49:46;3.73;;;1.00;;
18740;SDS011;9499;52.472;13.448;2023-06-22T09:52:12;2.50;;;0.90;;
18740;SDS011;9499;52.472;13.448;2023-06-22T09:54:39;2.07;;;1.20;;
18740;SDS011;9499;52.472;13.448;2023-06-22T09:57:05;5.43;;;1.07;;
18740;SDS011;9499;52.472;13.448;2023-06-22T09:59:32;2.00;;;1.20;;
18740;SDS011;9499;52.472;13.448;2023-06-22T10:01:59;2.90;;;0.97;;
18740;SDS011;9499;52.472;13.448;2023-06-22T10:04:25;1.50;;;0.67;;
18740;SDS011;9499;52.472;13.448;2023-06-22T10:06:53;2.27;;;1.10;;
18740;SDS011;9499;52.472;13.448;2023-06-22T10:09:20;2.30;;;1.53;;
18740;SDS011;9499;52.472;13.448;2023-06-22T10:11:47;2.43;;;1.30;;
18740;SDS011;9499;52.472;13.448;2023-06-22T10:14:13;1.47;;;0.90;;
18740;SDS011;9499;52.472;13.448;2023-06-22T10:16:40;2.13;;;0.77;;
18740;SDS011;9499;52.472;13.448;2023-06-22T10:19:07;1.80;;;0.97;;
18740;SDS011;9499;52.472;13.448;2023-06-22T10:21:33;1.80;;;1.00;;
18740;SDS011;9499;52.472;13.448;2023-06-22T10:24:01;1.87;;;1.20;;
18740;SDS011;9499;52.472;13.448;2023-06-22T10:26:31;1.47;;;0.67;;
18740;SDS011;9499;52.472;13.448;2023-06-22T10:28:57;2.30;;;1.13;;
18740;SDS011;9499;52.472;13.448;2023-06-22T10:31:24;1.70;;;0.80;;
18740;SDS011;9499;52.472;13.448;2023-06-22T10:33:50;3.23;;;0.87;;
18740;SDS011;9499;52.472;13.448;2023-06-22T10:36:18;2.27;;;0.90;;
18740;SDS011;9499;52.472;13.448;2023-06-22T10:38:44;1.87;;;0.60;;
18740;SDS011;9499;52.472;13.448;2023-06-22T10:41:13;1.70;;;0.80;;
18740;SDS011;9499;52.472;13.448;2023-06-22T10:43:40;1.90;;;0.90;;
18740;SDS011;9499;52.472;13.448;2023-06-22T10:46:06;1.70;;;0.80;;
18740;SDS011;9499;52.472;13.448;2023-06-22T10:48:33;1.83;;;0.67;;
18740;SDS011;9499;52.472;13.448;2023-06-22T10:50:59;3.03;;;1.40;;
18740;SDS011;9499;52.472;13.448;2023-06-22T10:53:26;2.20;;;1.07;;
18740;SDS011;9499;52.472;13.448;2023-06-22T10:55:52;1.30;;;0.60;;
18740;SDS011;9499;52.472;13.448;2023-06-22T10:58:21;2.30;;;1.10;;
18740;SDS011;9499;52.472;13.448;2023-06-22T11:00:47;1.70;;;0.90;;
18740;SDS011;9499;52.472;13.448;2023-06-22T11:03:13;1.83;;;0.97;;
18740;SDS011;9499;52.472;13.448;2023-06-22T11:05:40;2.47;;;0.93;;
18740;SDS011;9499;52.472;13.448;2023-06-22T11:08:07;1.90;;;1.00;;
18740;SDS011;9499;52.472;13.448;2023-06-22T11:10:33;1.63;;;0.93;;
18740;SDS011;9499;52.472;13.448;2023-06-22T11:13:00;1.50;;;0.73;;
18740;SDS011;9499;52.472;13.448;2023-06-22T11:15:30;1.77;;;0.83;;
18740;SDS011;9499;52.472;13.448;2023-06-22T11:17:57;1.50;;;0.70;;
18740;SDS011;9499;52.472;13.448;2023-06-22T11:20:23;2.10;;;1.07;;
18740;SDS011;9499;52.472;13.448;2023-06-22T11:22:50;2.33;;;1.20;;
18740;SDS011;9499;52.472;13.448;2023-06-22T11:25:16;1.50;;;0.70;;
18740;SDS011;9499;52.472;13.448;2023-06-22T11:27:43;2.30;;;0.83;;
18740;SDS011;9499;52.472;13.448;2023-06-22T11:30:09;1.60;;;0.70;;
18740;SDS011;9499;52.472;13.448;2023-06-22T11:32:38;1.80;;;1.00;;
18740;SDS011;9499;52.472;13.448;2023-06-22T11:35:04;1.90;;;0.80;;
18740;SDS011;9499;52.472;13.448;2023-06-22T11:37:31;1.83;;;0.90;;
18740;SDS011;9499;52.472;13.448;2023-06-22T11:39:57;2.40;;;1.20;;
18740;SDS011;9499;52.472;13.448;2023-06-22T11:42:24;2.17;;;1.00;;
18740;SDS011;9499;52.472;13.448;2023-06-22T11:44:51;1.43;;;0.80;;
18740;SDS011;9499;52.472;13.448;2023-06-22T11:47:17;2.57;;;1.07;;
18740;SDS011;9499;52.472;13.448;2023-06-22T11:49:45;2.23;;;1.13;;
18740;SDS011;9499;52.472;13.448;2023-06-22T11:52:12;2.40;;;1.30;;
18740;SDS011;9499;52.472;13.448;2023-06-22T11:54:39;1.90;;;1.00;;
18740;SDS011;9499;52.472;13.448;2023-06-22T11:57:05;2.33;;;1.17;;
18740;SDS011;9499;52.472;13.448;2023-06-22T11:59:32;2.10;;;1.00;;
18740;SDS011;9499;52.472;13.448;2023-06-22T12:01:58;2.10;;;1.00;;
18740;SDS011;9499;52.472;13.448;2023-06-22T12:04:25;3.00;;;1.20;;
18740;SDS011;9499;52.472;13.448;2023-06-22T12:06:53;2.00;;;1.03;;
18740;SDS011;9499;52.472;13.448;2023-06-22T12:09:19;1.80;;;0.70;;
18740;SDS011;9499;52.472;13.448;2023-06-22T12:11:46;1.80;;;1.00;;
18740;SDS011;9499;52.472;13.448;2023-06-22T12:14:12;1.53;;;0.80;;
18740;SDS011;9499;52.472;13.448;2023-06-22T12:16:39;4.57;;;1.07;;
18740;SDS011;9499;52.472;13.448;2023-06-22T12:19:05;2.00;;;1.10;;
18740;SDS011;9499;52.472;13.448;2023-06-22T12:21:32;2.70;;;1.50;;
18740;SDS011;9499;52.472;13.448;2023-06-22T12:24:00;2.20;;;1.17;;
18740;SDS011;9499;52.472;13.448;2023-06-22T12:26:26;2.07;;;0.80;;
18740;SDS011;9499;52.472;13.448;2023-06-22T12:28:53;2.20;;;1.23;;
18740;SDS011;9499;52.472;13.448;2023-06-22T12:31:19;1.70;;;0.90;;
18740;SDS011;9499;52.472;13.448;2023-06-22T12:33:46;1.80;;;0.87;;
18740;SDS011;9499;52.472;13.448;2023-06-22T12:36:12;2.10;;;1.30;;
18740;SDS011;9499;52.472;13.448;2023-06-22T12:38:39;2.20;;;0.90;;
18740;SDS011;9499;52.472;13.448;2023-06-22T12:41:06;3.63;;;1.40;;
18740;SDS011;9499;52.472;13.448;2023-06-22T12:43:33;2.07;;;1.10;;
18740;SDS011;9499;52.472;13.448;2023-06-22T12:46:00;2.03;;;0.83;;
18740;SDS011;9499;52.472;13.448;2023-06-22T12:48:27;2.60;;;1.10;;
18740;SDS011;9499;52.472;13.448;2023-06-22T12:50:53;2.43;;;1.27;;
18740;SDS011;9499;52.472;13.448;2023-06-22T12:53:20;2.30;;;0.80;;
18740;SDS011;9499;52.472;13.448;2023-06-22T12:55:47;1.90;;;1.13;;
18740;SDS011;9499;52.472;13.448;2023-06-22T12:58:15;2.27;;;1.70;;
18740;SDS011;9499;52.472;13.448;2023-06-22T13:00:42;2.10;;;1.17;;
18740;SDS011;9499;52.472;13.448;2023-06-22T13:03:08;2.20;;;1.30;;
18740;SDS011;9499;52.472;13.448;2023-06-22T13:05:35;2.40;;;1.33;;
18740;SDS011;9499;52.472;13.448;2023-06-22T13:08:01;1.70;;;1.00;;
18740;SDS011;9499;52.472;13.448;2023-06-22T13:10:28;2.60;;;1.10;;
18740;SDS011;9499;52.472;13.448;2023-06-22T13:12:54;2.20;;;1.23;;
18740;SDS011;9499;52.472;13.448;2023-06-22T13:15:26;2.33;;;1.47;;
18740;SDS011;9499;52.472;13.448;2023-06-22T13:17:53;2.50;;;0.97;;
18740;SDS011;9499;52.472;13.448;2023-06-22T13:20:19;2.40;;;1.33;;
18740;SDS011;9499;52.472;13.448;2023-06-22T13:22:46;2.10;;;1.40;;
18740;SDS011;9499;52.472;13.448;2023-06-22T13:25:13;2.03;;;1.20;;
18740;SDS011;9499;52.472;13.448;2023-06-22T13:27:44;2.43;;;1.30;;
18740;SDS011;9499;52.472;13.448;2023-06-22T13:30:10;2.10;;;1.37;;
18740;SDS011;9499;52.472;13.448;2023-06-22T13:32:39;2.50;;;1.30;;
18740;SDS011;9499;52.472;13.448;2023-06-22T13:35:07;3.30;;;1.10;;
18740;SDS011;9499;52.472;13.448;2023-06-22T13:37:34;1.90;;;1.07;;
18740;SDS011;9499;52.472;13.448;2023-06-22T13:40:00;3.10;;;1.10;;
18740;SDS011;9499;52.472;13.448;2023-06-22T13:42:30;2.27;;;1.20;;
18740;SDS011;9499;52.472;13.448;2023-06-22T13:44:56;2.13;;;1.23;;
18740;SDS011;9499;52.472;13.448;2023-06-22T13:47:23;2.60;;;1.67;;
18740;SDS011;9499;52.472;13.448;2023-06-22T13:49:51;2.00;;;1.10;;
18740;SDS011;9499;52.472;13.448;2023-06-22T13:52:17;2.80;;;1.27;;
18740;SDS011;9499;52.472;13.448;2023-06-22T13:54:44;1.97;;;1.27;;
18740;SDS011;9499;52.472;13.448;2023-06-22T13:57:10;2.57;;;1.30;;
18740;SDS011;9499;52.472;13.448;2023-06-22T13:59:37;1.87;;;1.13;;
18740;SDS011;9499;52.472;13.448;2023-06-22T14:02:04;3.70;;;1.30;;
18740;SDS011;9499;52.472;13.448;2023-06-22T14:04:30;3.00;;;1.53;;
18740;SDS011;9499;52.472;13.448;2023-06-22T14:06:58;1.93;;;0.90;;
18740;SDS011;9499;52.472;13.448;2023-06-22T14:09:25;1.80;;;0.97;;
18740;SDS011;9499;52.472;13.448;2023-06-22T14:11:53;2.20;;;1.43;;
18740;SDS011;9499;52.472;13.448;2023-06-22T14:14:20;2.03;;;1.10;;
18740;SDS011;9499;52.472;13.448;2023-06-22T14:16:47;2.20;;;1.30;;
18740;SDS011;9499;52.472;13.448;2023-06-22T14:19:14;2.17;;;1.30;;
18740;SDS011;9499;52.472;13.448;2023-06-22T14:21:42;1.90;;;1.10;;
18740;SDS011;9499;52.472;13.448;2023-06-22T14:24:10;1.90;;;1.00;;
18740;SDS011;9499;52.472;13.448;2023-06-22T14:26:36;2.17;;;1.38;;
18740;SDS011;9499;52.472;13.448;2023-06-22T14:29:03;1.70;;;0.90;;
18740;SDS011;9499;52.472;13.448;2023-06-22T14:31:29;2.47;;;1.30;;
18740;SDS011;9499;52.472;13.448;2023-06-22T14:33:56;2.43;;;0.93;;
18740;SDS011;9499;52.472;13.448;2023-06-22T14:36:22;1.90;;;0.83;;
18740;SDS011;9499;52.472;13.448;2023-06-22T14:38:49;1.80;;;0.70;;
18740;SDS011;9499;52.472;13.448;2023-06-22T14:41:17;3.27;;;1.90;;
18740;SDS011;9499;52.472;13.448;2023-06-22T14:43:44;2.40;;;1.10;;
18740;SDS011;9499;52.472;13.448;2023-06-22T14:46:11;2.30;;;1.40;;
18740;SDS011;9499;52.472;13.448;2023-06-22T14:48:38;2.17;;;1.40;;